createdAt,value
2017-11-17T00:01:54.688Z,25.50
2017-11-17T00:04:21.292Z,26.43
2017-11-17T00:06:47.888Z,26.13
2017-11-17T00:09:14.507Z,26.60
2017-11-17T00:11:41.103Z,27.87
2017-11-17T00:14:07.685Z,24.30
2017-11-17T00:16:34.283Z,29.03
2017-11-17T00:19:00.873Z,29.57
2017-11-17T00:21:27.497Z,32.63
2017-11-17T00:23:54.062Z,29.53
2017-11-17T00:26:20.664Z,28.70
2017-11-17T00:28:47.251Z,26.00
2017-11-17T00:31:13.856Z,27.00
2017-11-17T00:33:40.443Z,24.37
2017-11-17T00:36:07.042Z,27.60
2017-11-17T00:38:33.635Z,27.03
2017-11-17T00:41:00.219Z,30.47
2017-11-17T00:43:26.831Z,27.40
2017-11-17T00:45:53.424Z,29.70
2017-11-17T00:48:20.038Z,29.40
2017-11-17T00:50:46.624Z,26.37
2017-11-17T00:53:13.232Z,24.57
2017-11-17T00:55:39.819Z,26.67
2017-11-17T00:58:06.424Z,27.40
2017-11-17T01:00:33.011Z,24.67
2017-11-17T01:02:59.604Z,23.93
2017-11-17T01:05:26.199Z,27.23
2017-11-17T01:07:52.783Z,27.67
2017-11-17T01:10:19.383Z,24.07
2017-11-17T01:12:45.979Z,25.60
2017-11-17T01:15:12.583Z,27.00
2017-11-17T01:17:39.189Z,26.63
2017-11-17T01:20:05.776Z,26.93
2017-11-17T01:22:32.372Z,27.63
2017-11-17T01:24:58.958Z,27.47
2017-11-17T01:27:25.551Z,25.60
2017-11-17T01:29:52.144Z,23.90
2017-11-17T01:32:18.739Z,23.13
2017-11-17T01:34:45.330Z,24.57
2017-11-17T01:37:11.947Z,27.10
2017-11-17T01:39:38.532Z,24.10
2017-11-17T01:42:05.124Z,24.00
2017-11-17T01:44:31.715Z,25.50
2017-11-17T01:46:58.303Z,23.80
2017-11-17T01:49:24.899Z,27.93
2017-11-17T01:51:51.493Z,25.70
2017-11-17T01:54:18.084Z,27.47
2017-11-17T01:56:44.690Z,24.83
2017-11-17T01:59:11.308Z,24.40
2017-11-17T02:01:37.900Z,24.57
2017-11-17T02:04:04.490Z,29.97
2017-11-17T02:06:31.076Z,28.90
2017-11-17T02:08:57.670Z,29.63
2017-11-17T02:11:24.263Z,28.37
2017-11-17T02:13:50.860Z,29.83
2017-11-17T02:16:17.463Z,24.70
2017-11-17T02:18:44.056Z,29.63
2017-11-17T02:21:10.651Z,28.70
2017-11-17T02:23:37.243Z,37.20
2017-11-17T02:26:03.852Z,31.37
2017-11-17T02:28:30.439Z,32.10
2017-11-17T02:30:57.035Z,29.77
2017-11-17T02:33:23.630Z,31.53
2017-11-17T02:35:50.221Z,32.37
2017-11-17T02:38:16.815Z,36.23
2017-11-17T02:40:43.416Z,33.37
2017-11-17T02:43:10.028Z,32.00
2017-11-17T02:45:36.648Z,32.03
2017-11-17T02:48:03.227Z,33.17
2017-11-17T02:50:29.825Z,32.60
2017-11-17T02:52:56.439Z,34.53
2017-11-17T02:55:23.031Z,31.97
2017-11-17T02:57:49.624Z,32.10
2017-11-17T03:00:16.216Z,35.27
2017-11-17T03:02:42.807Z,31.97
2017-11-17T03:05:09.411Z,35.00
2017-11-17T03:07:36.094Z,36.70
2017-11-17T03:10:02.679Z,31.23
2017-11-17T03:12:29.274Z,34.00
2017-11-17T03:14:55.859Z,34.17
2017-11-17T03:17:22.461Z,39.20
2017-11-17T03:19:49.052Z,35.53
2017-11-17T03:22:15.644Z,37.43
2017-11-17T03:24:42.268Z,37.60
2017-11-17T03:27:08.860Z,36.80
2017-11-17T03:29:35.459Z,37.43
2017-11-17T03:32:02.061Z,33.73
2017-11-17T03:34:28.654Z,37.93
2017-11-17T03:36:55.239Z,33.67
2017-11-17T03:39:21.839Z,33.00
2017-11-17T03:41:48.419Z,39.67
2017-11-17T03:44:15.021Z,34.13
2017-11-17T03:46:41.611Z,35.27
2017-11-17T03:49:08.221Z,37.83
2017-11-17T03:51:34.791Z,40.40
2017-11-17T03:54:01.399Z,38.13
2017-11-17T03:56:27.987Z,39.57
2017-11-17T03:58:54.572Z,39.23
2017-11-17T04:01:21.184Z,38.03
2017-11-17T04:03:47.769Z,34.97
2017-11-17T04:06:14.359Z,39.27
2017-11-17T04:08:40.960Z,43.97
2017-11-17T04:11:07.559Z,36.33
2017-11-17T04:13:34.148Z,38.97
2017-11-17T04:16:00.747Z,41.70
2017-11-17T04:18:27.339Z,34.80
2017-11-17T04:20:53.939Z,36.90
2017-11-17T04:23:20.539Z,34.83
2017-11-17T04:25:47.140Z,34.77
2017-11-17T04:28:13.733Z,35.33
2017-11-17T04:30:40.316Z,36.40
2017-11-17T04:33:06.917Z,36.83
2017-11-17T04:35:33.498Z,41.53
2017-11-17T04:38:00.096Z,38.70
2017-11-17T04:40:26.680Z,41.33
2017-11-17T04:42:53.267Z,43.40
2017-11-17T04:45:19.874Z,42.33
2017-11-17T04:47:46.454Z,39.10
2017-11-17T04:50:13.061Z,42.07
2017-11-17T04:52:39.708Z,37.60
2017-11-17T04:55:06.279Z,39.70
2017-11-17T04:57:32.884Z,41.83
2017-11-17T04:59:59.475Z,37.43
2017-11-17T05:02:26.072Z,39.13
2017-11-17T05:04:52.657Z,39.63
2017-11-17T05:07:19.256Z,46.47
2017-11-17T05:09:45.843Z,47.03
2017-11-17T05:12:12.435Z,51.10
2017-11-17T05:14:39.032Z,51.90
2017-11-17T05:17:05.620Z,57.40
2017-11-17T05:19:32.220Z,64.67
2017-11-17T05:21:58.804Z,57.43
2017-11-17T05:24:25.399Z,69.23
2017-11-17T05:26:51.988Z,66.73
2017-11-17T05:29:18.588Z,72.10
2017-11-17T05:31:45.173Z,60.23
2017-11-17T05:34:11.769Z,62.87
2017-11-17T05:36:38.359Z,79.00
2017-11-17T05:39:04.949Z,77.20
2017-11-17T05:41:31.548Z,76.10
2017-11-17T05:43:58.136Z,78.40
2017-11-17T05:46:24.743Z,74.03
2017-11-17T05:48:51.348Z,70.30
2017-11-17T05:51:17.935Z,62.83
2017-11-17T05:53:44.524Z,69.10
2017-11-17T05:56:11.129Z,76.27
2017-11-17T05:58:37.723Z,75.73
2017-11-17T06:01:04.315Z,79.23
2017-11-17T06:03:30.926Z,72.53
2017-11-17T06:05:57.719Z,62.90
2017-11-17T06:08:24.333Z,64.17
2017-11-17T06:10:50.915Z,68.23
2017-11-17T06:13:17.516Z,80.07
2017-11-17T06:15:44.098Z,74.10
2017-11-17T06:18:10.700Z,63.00
2017-11-17T06:20:37.295Z,67.00
2017-11-17T06:23:03.884Z,70.73
2017-11-17T06:25:30.479Z,69.67
2017-11-17T06:27:57.067Z,72.07
2017-11-17T06:30:23.667Z,70.00
2017-11-17T06:32:50.255Z,62.17
2017-11-17T06:35:16.855Z,74.77
2017-11-17T06:37:43.443Z,72.03
2017-11-17T06:40:10.078Z,73.30
2017-11-17T06:42:36.713Z,63.50
2017-11-17T06:45:03.297Z,66.23
2017-11-17T06:47:29.895Z,67.13
2017-11-17T06:49:56.485Z,70.27
2017-11-17T06:52:23.082Z,72.50
2017-11-17T06:54:50.611Z,62.30
2017-11-17T06:57:17.212Z,71.27
2017-11-17T06:59:43.808Z,63.03
2017-11-17T07:02:10.410Z,80.87
2017-11-17T07:04:37.018Z,73.57
2017-11-17T07:07:03.632Z,76.83
2017-11-17T07:09:30.221Z,66.00
2017-11-17T07:11:56.823Z,69.80
2017-11-17T07:14:23.413Z,68.90
2017-11-17T07:16:50.929Z,68.40
2017-11-17T07:19:17.547Z,66.30
2017-11-17T07:21:44.132Z,72.53
2017-11-17T07:24:10.737Z,71.60
2017-11-17T07:26:37.327Z,71.87
2017-11-17T07:29:03.921Z,72.70
2017-11-17T07:31:30.512Z,66.30
2017-11-17T07:33:57.124Z,75.33
2017-11-17T07:36:23.735Z,74.20
2017-11-17T07:38:50.323Z,69.57
2017-11-17T07:41:16.932Z,75.60
2017-11-17T07:43:43.521Z,69.13
2017-11-17T07:46:10.122Z,69.03
2017-11-17T07:48:36.715Z,69.93
2017-11-17T07:51:03.317Z,63.43
2017-11-17T07:53:29.903Z,68.70
2017-11-17T07:55:56.504Z,70.53
2017-11-17T07:58:23.104Z,74.40
2017-11-17T08:00:49.687Z,61.30
2017-11-17T08:03:16.357Z,63.70
2017-11-17T08:05:42.949Z,68.50
2017-11-17T08:08:09.551Z,73.50
2017-11-17T08:10:36.160Z,64.83
2017-11-17T08:13:02.759Z,68.40
2017-11-17T08:15:29.353Z,62.87
2017-11-17T08:18:12.780Z,62.93
2017-11-17T08:20:39.372Z,61.60
2017-11-17T08:23:05.975Z,69.70
2017-11-17T08:25:32.600Z,64.27
2017-11-17T08:27:59.212Z,70.77
2017-11-17T08:30:25.829Z,70.83
2017-11-17T08:32:52.419Z,67.00
2017-11-17T08:35:19.015Z,65.53
2017-11-17T08:37:45.612Z,60.53
2017-11-17T08:40:12.212Z,67.33
2017-11-17T08:42:38.805Z,60.47
2017-11-17T08:45:05.401Z,65.67
2017-11-17T08:47:31.987Z,67.23
2017-11-17T08:49:58.592Z,65.37
2017-11-17T08:52:25.186Z,58.77
2017-11-17T08:54:51.775Z,68.17
2017-11-17T08:57:18.373Z,64.27
2017-11-17T08:59:44.968Z,71.00
2017-11-17T09:02:11.561Z,57.73
2017-11-17T09:04:38.155Z,52.13
2017-11-17T09:07:04.754Z,53.03
2017-11-17T09:09:31.351Z,55.07
2017-11-17T09:11:57.955Z,55.33
2017-11-17T09:14:24.548Z,58.67
2017-11-17T09:16:51.149Z,61.37
2017-11-17T09:19:17.755Z,59.43
2017-11-17T09:21:44.326Z,56.83
2017-11-17T09:24:10.928Z,50.60
2017-11-17T09:26:37.530Z,56.17
2017-11-17T09:29:04.123Z,50.73
2017-11-17T09:31:30.712Z,51.67
2017-11-17T09:33:57.300Z,44.03
2017-11-17T09:36:23.895Z,58.37
2017-11-17T09:38:50.483Z,37.13
2017-11-17T09:41:17.084Z,38.20
2017-11-17T09:43:43.673Z,35.77
2017-11-17T09:46:10.367Z,36.17
2017-11-17T09:48:36.960Z,28.13
2017-11-17T09:51:03.537Z,33.30
2017-11-17T09:53:30.127Z,31.17
2017-11-17T09:55:56.723Z,29.00
2017-11-17T09:58:23.324Z,34.77
2017-11-17T10:00:49.923Z,30.47
2017-11-17T10:03:16.511Z,29.60
2017-11-17T10:05:43.099Z,31.03
2017-11-17T10:08:09.710Z,29.10
2017-11-17T10:10:36.324Z,33.57
2017-11-17T10:13:02.920Z,32.73
2017-11-17T10:15:29.531Z,31.30
2017-11-17T10:17:56.139Z,27.40
2017-11-17T10:20:22.732Z,29.60
2017-11-17T10:22:49.321Z,33.87
2017-11-17T10:25:15.915Z,29.50
2017-11-17T10:27:42.511Z,22.07
2017-11-17T10:30:09.135Z,23.13
2017-11-17T10:32:35.740Z,22.07
2017-11-17T10:35:02.316Z,18.90
2017-11-17T10:37:28.927Z,23.00
2017-11-17T10:39:55.515Z,28.27
2017-11-17T10:42:22.111Z,22.27
2017-11-17T10:44:48.708Z,28.70
2017-11-17T10:47:15.305Z,30.53
2017-11-17T10:49:41.896Z,38.93
2017-11-17T10:52:08.502Z,36.77
2017-11-17T10:54:35.092Z,38.33
2017-11-17T10:57:01.717Z,35.50
2017-11-17T10:59:28.315Z,45.30
2017-11-17T11:01:54.899Z,47.70
2017-11-17T11:04:21.500Z,37.27
2017-11-17T11:06:48.087Z,40.47
2017-11-17T11:09:14.719Z,32.50
2017-11-17T11:11:46.903Z,39.90
2017-11-17T11:14:13.492Z,40.50
2017-11-17T11:16:40.083Z,37.27
2017-11-17T11:19:06.691Z,40.63
2017-11-17T11:21:33.297Z,36.67
2017-11-17T11:23:59.879Z,36.80
2017-11-17T11:26:26.477Z,29.63
2017-11-17T11:28:53.064Z,27.93
2017-11-17T11:31:19.667Z,30.87
2017-11-17T11:33:46.259Z,28.50
2017-11-17T11:36:12.861Z,16.67
2017-11-17T11:38:39.465Z,16.40
2017-11-17T11:41:06.051Z,13.90
2017-11-17T11:43:32.648Z,22.93
2017-11-17T11:45:59.234Z,18.47
2017-11-17T11:48:25.832Z,12.47
2017-11-17T11:50:52.423Z,12.27
2017-11-17T11:53:19.008Z,13.20
2017-11-17T11:55:45.628Z,14.20
2017-11-17T11:58:12.212Z,9.43
2017-11-17T12:00:38.803Z,12.90
2017-11-17T12:03:05.388Z,13.57
2017-11-17T12:05:31.979Z,11.90
2017-11-17T12:07:58.567Z,14.40
2017-11-17T12:10:25.151Z,12.70
2017-11-17T12:12:51.771Z,11.07
2017-11-17T12:15:18.391Z,11.73
2017-11-17T12:17:44.956Z,11.53
2017-11-17T12:20:11.540Z,10.63
2017-11-17T12:22:38.128Z,8.70
2017-11-17T12:25:04.708Z,10.57
2017-11-17T12:27:31.307Z,12.83
2017-11-17T12:29:57.888Z,10.00
2017-11-17T12:32:25.295Z,14.07
2017-11-17T12:34:51.883Z,17.20
2017-11-17T12:37:18.472Z,13.67
2017-11-17T12:39:45.067Z,10.70
2017-11-17T12:42:11.656Z,17.03
2017-11-17T12:44:38.251Z,15.40
2017-11-17T12:47:04.843Z,14.30
2017-11-17T12:49:31.423Z,10.40
2017-11-17T12:51:58.024Z,13.53
2017-11-17T12:54:24.612Z,14.47
2017-11-17T12:56:51.202Z,13.97
2017-11-17T12:59:17.779Z,9.80
2017-11-17T13:01:44.393Z,17.57
2017-11-17T13:04:10.996Z,23.63
2017-11-17T13:06:37.597Z,16.27
2017-11-17T13:09:04.188Z,28.93
2017-11-17T13:11:30.772Z,18.20
2017-11-17T13:13:57.363Z,12.93
2017-11-17T13:16:23.980Z,10.00
2017-11-17T13:18:50.588Z,14.53
2017-11-17T13:21:17.204Z,10.97
2017-11-17T13:23:43.813Z,8.90
2017-11-17T13:26:10.404Z,11.70
2017-11-17T13:28:36.984Z,7.97
2017-11-17T13:31:03.575Z,10.93
2017-11-17T13:33:30.164Z,11.10
2017-11-17T13:35:56.752Z,7.33
2017-11-17T13:38:23.333Z,9.07
2017-11-17T13:40:49.923Z,6.77
2017-11-17T13:43:16.507Z,6.60
2017-11-17T13:45:43.106Z,5.57
2017-11-17T13:48:09.687Z,5.17
2017-11-17T13:50:36.279Z,11.60
2017-11-17T13:53:02.865Z,6.67
2017-11-17T13:55:29.448Z,9.83
2017-11-17T13:57:56.032Z,5.80
2017-11-17T14:00:22.615Z,5.20
2017-11-17T14:02:49.209Z,5.80
2017-11-17T14:05:15.816Z,7.77
2017-11-17T14:07:42.414Z,7.30
2017-11-17T14:10:09.005Z,13.03
2017-11-17T14:12:35.600Z,8.63
2017-11-17T14:15:02.196Z,8.03
2017-11-17T14:17:28.793Z,7.10
2017-11-17T14:19:55.372Z,11.83
2017-11-17T14:22:21.974Z,12.60
2017-11-17T14:24:48.549Z,7.97
2017-11-17T14:27:15.136Z,5.53
2017-11-17T14:29:41.763Z,15.30
2017-11-17T14:32:08.328Z,9.57
2017-11-17T14:34:34.912Z,10.33
2017-11-17T14:37:01.499Z,4.57
2017-11-17T14:39:28.101Z,7.73
2017-11-17T14:41:54.676Z,8.43
2017-11-17T14:44:21.258Z,8.13
2017-11-17T14:46:47.876Z,6.30
2017-11-17T14:49:14.476Z,9.60
2017-11-17T14:51:41.072Z,8.17
2017-11-17T14:54:07.651Z,4.90
2017-11-17T14:56:34.287Z,13.50
2017-11-17T14:59:00.873Z,6.27
2017-11-17T15:01:27.447Z,7.17
2017-11-17T15:03:54.060Z,10.30
2017-11-17T15:06:20.692Z,5.27
2017-11-17T15:08:47.300Z,6.80
2017-11-17T15:11:13.879Z,6.60
2017-11-17T15:13:40.472Z,7.90
2017-11-17T15:16:07.070Z,13.10
2017-11-17T15:18:33.653Z,6.43
2017-11-17T15:21:00.244Z,7.00
2017-11-17T15:23:26.839Z,7.03
2017-11-17T15:25:53.427Z,10.03
2017-11-17T15:28:20.024Z,10.43
2017-11-17T15:30:46.619Z,8.20
2017-11-17T15:33:13.203Z,8.90
2017-11-17T15:35:39.785Z,7.03
2017-11-17T15:38:06.380Z,5.00
2017-11-17T15:40:32.980Z,11.27
2017-11-17T15:42:59.567Z,7.30
2017-11-17T15:45:26.157Z,7.17
2017-11-17T15:47:52.751Z,7.87
2017-11-17T15:50:20.322Z,11.60
2017-11-17T15:52:46.904Z,7.83
2017-11-17T15:55:13.496Z,3.73
2017-11-17T15:57:40.083Z,7.87
2017-11-17T16:00:06.692Z,5.53
2017-11-17T16:02:33.275Z,5.57
2017-11-17T16:04:59.863Z,11.73
2017-11-17T16:07:26.447Z,8.97
2017-11-17T16:09:53.035Z,5.40
2017-11-17T16:12:19.624Z,6.83
2017-11-17T16:14:46.211Z,5.57
2017-11-17T16:17:12.815Z,5.53
2017-11-17T16:19:39.401Z,6.00
2017-11-17T16:22:05.988Z,8.23
2017-11-17T16:24:32.569Z,8.20
2017-11-17T16:26:59.155Z,7.07
2017-11-17T16:29:25.737Z,7.33
2017-11-17T16:31:52.331Z,3.43
2017-11-17T16:34:18.940Z,3.93
2017-11-17T16:36:45.532Z,4.57
2017-11-17T16:39:12.124Z,7.80
2017-11-17T16:41:38.711Z,8.10
2017-11-17T16:44:05.323Z,6.30
2017-11-17T16:46:31.896Z,9.23
2017-11-17T16:48:58.480Z,9.93
2017-11-17T16:51:25.068Z,4.07
2017-11-17T16:53:51.667Z,5.73
2017-11-17T16:56:18.264Z,8.40
2017-11-17T16:58:44.864Z,4.50
2017-11-17T17:01:11.460Z,10.60
2017-11-17T17:03:38.040Z,6.00
2017-11-17T17:06:04.631Z,7.10
2017-11-17T17:08:31.216Z,4.40
2017-11-17T17:10:57.808Z,5.47
2017-11-17T17:13:26.190Z,8.73
2017-11-17T17:15:52.810Z,6.27
2017-11-17T17:18:19.417Z,5.70
2017-11-17T17:20:45.987Z,3.80
2017-11-17T17:23:12.580Z,9.53
2017-11-17T17:25:39.163Z,13.07
2017-11-17T17:28:05.757Z,8.07
2017-11-17T17:30:32.337Z,6.20
2017-11-17T17:32:59.979Z,7.07
2017-11-17T17:35:26.574Z,8.63
2017-11-17T17:37:53.153Z,8.43
2017-11-17T17:40:19.749Z,6.77
2017-11-17T17:42:46.373Z,7.17
2017-11-17T17:45:14.800Z,8.63
2017-11-17T17:47:41.379Z,10.77
2017-11-17T17:50:07.968Z,10.60
2017-11-17T17:52:34.559Z,7.10
2017-11-17T17:55:01.151Z,17.33
2017-11-17T17:57:32.212Z,20.10
2017-11-17T17:59:58.804Z,26.17
2017-11-17T18:02:25.481Z,14.67
2017-11-17T18:04:52.067Z,20.17
2017-11-17T18:07:18.668Z,26.43
2017-11-17T18:09:45.251Z,23.30
2017-11-17T18:12:11.836Z,16.77
2017-11-17T18:14:38.863Z,16.07
2017-11-17T18:17:05.452Z,8.53
2017-11-17T18:19:32.044Z,14.73
2017-11-17T18:21:58.645Z,13.33
2017-11-17T18:24:25.271Z,15.00
2017-11-17T18:26:51.819Z,14.80
2017-11-17T18:29:18.441Z,15.70
2017-11-17T18:31:45.019Z,14.90
2017-11-17T18:34:11.617Z,11.27
2017-11-17T18:36:38.253Z,17.00
2017-11-17T18:39:04.819Z,13.40
2017-11-17T18:41:31.388Z,9.30
2017-11-17T18:43:57.967Z,11.20
2017-11-17T18:46:24.592Z,11.80
2017-11-17T18:48:51.198Z,12.20
2017-11-17T18:51:17.818Z,15.30
2017-11-17T18:53:46.180Z,11.97
2017-11-17T18:56:12.799Z,12.40
2017-11-17T18:58:39.414Z,10.40
2017-11-17T19:01:06.019Z,17.87
2017-11-17T19:03:32.613Z,14.03
2017-11-17T19:05:59.217Z,15.10
2017-11-17T19:08:25.840Z,14.73
2017-11-17T19:10:52.624Z,12.33
2017-11-17T19:13:19.285Z,14.03
2017-11-17T19:15:46.228Z,13.00
2017-11-17T19:18:12.849Z,17.70
2017-11-17T19:20:39.443Z,13.03
2017-11-17T19:23:06.329Z,12.80
2017-11-17T19:25:32.919Z,13.57
2017-11-17T19:27:59.503Z,15.67
2017-11-17T19:30:26.100Z,17.50
2017-11-17T19:32:52.697Z,47.80
2017-11-17T19:35:21.219Z,29.40
2017-11-17T19:37:47.812Z,18.77
2017-11-17T19:40:14.467Z,15.93
2017-11-17T19:42:41.060Z,19.60
2017-11-17T19:45:07.658Z,21.67
2017-11-17T19:47:34.229Z,14.03
2017-11-17T19:50:00.824Z,32.60
2017-11-17T19:52:27.412Z,40.67
2017-11-17T19:54:54.028Z,33.37
2017-11-17T19:57:20.624Z,24.93
2017-11-17T19:59:47.227Z,31.57
2017-11-17T20:02:13.860Z,27.00
2017-11-17T20:04:40.450Z,24.40
2017-11-17T20:07:07.228Z,26.70
2017-11-17T20:09:33.819Z,19.67
2017-11-17T20:12:00.428Z,17.73
2017-11-17T20:14:27.011Z,21.20
2017-11-17T20:16:53.611Z,12.90
2017-11-17T20:19:20.270Z,13.67
2017-11-17T20:21:46.864Z,15.07
2017-11-17T20:24:13.456Z,14.53
2017-11-17T20:26:40.063Z,14.70
2017-11-17T20:29:06.680Z,14.73
2017-11-17T20:31:33.260Z,14.00
2017-11-17T20:33:59.855Z,13.93
2017-11-17T20:36:26.439Z,15.70
2017-11-17T20:38:53.054Z,13.20
2017-11-17T20:41:19.631Z,12.80
2017-11-17T20:43:46.221Z,13.23
2017-11-17T20:46:12.822Z,13.67
2017-11-17T20:48:39.407Z,14.83
2017-11-17T20:51:06.007Z,12.10
2017-11-17T20:53:32.596Z,15.57
2017-11-17T20:55:59.191Z,11.47
2017-11-17T20:58:25.775Z,11.87
2017-11-17T21:00:52.379Z,13.50
2017-11-17T21:03:18.967Z,15.63
2017-11-17T21:05:45.567Z,14.23
2017-11-17T21:08:12.160Z,13.30
2017-11-17T21:10:38.788Z,14.33
2017-11-17T21:13:05.375Z,13.43
2017-11-17T21:15:31.968Z,10.13
2017-11-17T21:17:58.558Z,16.47
2017-11-17T21:20:25.267Z,13.30
2017-11-17T21:22:51.879Z,16.77
2017-11-17T21:25:18.556Z,12.83
2017-11-17T21:27:45.134Z,11.30
2017-11-17T21:30:11.734Z,14.80
2017-11-17T21:32:38.477Z,13.73
2017-11-17T21:35:05.057Z,12.00
2017-11-17T21:37:31.656Z,14.07
2017-11-17T21:39:58.254Z,16.83
2017-11-17T21:42:24.836Z,17.87
2017-11-17T21:44:51.439Z,18.90
2017-11-17T21:47:18.045Z,24.53
2017-11-17T21:49:44.616Z,19.93
2017-11-17T21:52:11.224Z,24.23
2017-11-17T21:54:37.811Z,22.17
2017-11-17T21:57:04.409Z,20.47
2017-11-17T21:59:30.996Z,17.90
2017-11-17T22:01:57.592Z,19.63
2017-11-17T22:04:24.175Z,20.70
2017-11-17T22:06:50.778Z,18.03
2017-11-17T22:09:17.373Z,18.23
2017-11-17T22:11:43.968Z,21.00
2017-11-17T22:14:10.588Z,15.33
2017-11-17T22:16:37.171Z,15.87
2017-11-17T22:19:03.772Z,20.53
2017-11-17T22:21:30.356Z,17.20
2017-11-17T22:23:56.952Z,13.13
2017-11-17T22:26:23.550Z,21.23
2017-11-17T22:28:50.155Z,24.73
2017-11-17T22:31:16.754Z,27.90
2017-11-17T22:33:43.360Z,24.60
2017-11-17T22:36:09.964Z,56.13
2017-11-17T22:38:36.572Z,39.93
2017-11-17T22:41:03.190Z,35.80
2017-11-17T22:43:29.768Z,23.33
2017-11-17T22:45:56.364Z,15.40
2017-11-17T22:48:22.947Z,11.90
2017-11-17T22:50:49.547Z,15.40
2017-11-17T22:53:16.130Z,12.97
2017-11-17T22:55:42.715Z,14.83
2017-11-17T22:58:09.307Z,14.23
2017-11-17T23:00:35.896Z,13.70
2017-11-17T23:03:02.487Z,10.87
2017-11-17T23:05:29.073Z,12.07
2017-11-17T23:07:55.680Z,13.90
2017-11-17T23:10:22.257Z,16.50
2017-11-17T23:12:48.895Z,15.20
2017-11-17T23:15:15.479Z,15.97
2017-11-17T23:17:42.072Z,12.30
2017-11-17T23:20:08.673Z,11.90
2017-11-17T23:22:35.264Z,13.03
2017-11-17T23:25:01.856Z,13.00
2017-11-17T23:27:28.451Z,13.60
2017-11-17T23:29:55.047Z,13.77
2017-11-17T23:32:21.639Z,14.30
2017-11-17T23:34:48.224Z,15.70
2017-11-17T23:37:14.820Z,13.50
2017-11-17T23:39:41.423Z,16.60
2017-11-17T23:42:08.033Z,12.57
2017-11-17T23:44:34.616Z,17.83
2017-11-17T23:47:01.224Z,14.53
2017-11-17T23:49:27.820Z,16.20
2017-11-17T23:51:54.431Z,17.87
2017-11-17T23:54:21.036Z,13.33
2017-11-17T23:56:47.635Z,12.83
2017-11-17T23:59:14.249Z,14.10
